Time;durP1;ratioP1;P1;durP2;ratioP2;P2;SDS_P1;SDS_P2;PMS_P1;PMS_P2;Temp;Humidity;BMP_temperature;BMP_pressure;BME280_temperature;BME280_humidity;BME280_pressure;Samples;Min_cycle;Max_cycle;Signal;HPM_P1;HPM_P2
2021/01/19 00:00:22;;;;;;;7.15;3.33;;;1.60;99.90;;;;;;4975768;28;20043;-76
2021/01/19 00:02:47;;;;;;;9.18;3.55;;;1.50;99.90;;;;;;4975923;28;20046;-76
2021/01/19 00:05:13;;;;;;;8.75;3.38;;;1.50;99.90;;;;;;4978075;28;20286;-76
2021/01/19 00:07:39;;;;;;;9.18;3.55;;;1.70;99.20;;;;;;4976457;28;20065;-77
2021/01/19 00:10:08;;;;;;;10.90;3.22;;;1.70;99.40;;;;;;4976251;28;20074;-77
2021/01/19 00:12:34;;;;;;;7.57;3.58;;;1.70;99.20;;;;;;4973892;28;20096;-76
2021/01/19 00:14:59;;;;;;;5.15;3.08;;;1.60;99.00;;;;;;4978576;28;20474;-77
2021/01/19 00:17:25;;;;;;;7.07;3.28;;;1.60;99.20;;;;;;4975929;28;20038;-75
2021/01/19 00:19:51;;;;;;;9.57;2.95;;;1.70;99.10;;;;;;4976626;28;20046;-75
2021/01/19 00:22:16;;;;;;;9.23;2.75;;;1.60;99.10;;;;;;4977016;28;20038;-75
2021/01/19 00:24:42;;;;;;;7.25;3.20;;;1.60;99.10;;;;;;4979081;28;20145;-74
2021/01/19 00:27:07;;;;;;;5.78;2.65;;;1.50;99.40;;;;;;4973194;28;20040;-74
2021/01/19 00:29:33;;;;;;;6.00;2.92;;;1.50;99.00;;;;;;4974295;28;20570;-75
2021/01/19 00:31:58;;;;;;;7.78;3.35;;;1.50;99.30;;;;;;4990687;28;20031;-76
2021/01/19 00:34:24;;;;;;;10.57;2.90;;;1.60;99.10;;;;;;4972191;28;20584;-75
2021/01/19 00:36:50;;;;;;;11.15;3.58;;;1.60;99.00;;;;;;4977574;28;20035;-75
2021/01/19 00:39:15;;;;;;;9.75;2.50;;;1.60;99.00;;;;;;4971693;28;20060;-75
2021/01/19 00:41:41;;;;;;;6.78;2.67;;;1.70;98.40;;;;;;4971495;28;20114;-75
2021/01/19 00:44:07;;;;;;;6.60;3.08;;;1.70;98.60;;;;;;4970301;28;20448;-74
2021/01/19 00:46:33;;;;;;;9.00;2.78;;;1.70;98.40;;;;;;5017804;22;20577;-76
2021/01/19 00:48:59;;;;;;;7.38;2.40;;;1.60;98.50;;;;;;5009938;28;20037;-76
2021/01/19 00:51:31;;;;;;;7.70;3.00;;;1.60;98.90;;;;;;5011660;28;20068;-77
2021/01/19 00:53:56;;;;;;;8.52;3.03;;;1.50;98.70;;;;;;5008930;28;20041;-75
2021/01/19 00:56:22;;;;;;;5.97;2.90;;;1.50;98.80;;;;;;5016643;28;20053;-75
2021/01/19 00:58:47;;;;;;;8.07;2.42;;;1.50;98.80;;;;;;5020130;28;20041;-75
2021/01/19 01:01:13;;;;;;;6.95;2.85;;;1.50;99.10;;;;;;5006706;28;20538;-75
2021/01/19 01:03:38;;;;;;;14.90;3.03;;;1.50;98.80;;;;;;5014900;28;20113;-75
2021/01/19 01:06:04;;;;;;;7.63;2.35;;;1.50;99.00;;;;;;5012766;28;20091;-75
2021/01/19 01:08:29;;;;;;;5.88;2.53;;;1.40;99.50;;;;;;5007387;28;20107;-76
2021/01/19 01:10:55;;;;;;;5.57;2.75;;;1.40;99.40;;;;;;5007947;28;20159;-77
2021/01/19 01:13:20;;;;;;;8.88;2.88;;;1.40;99.30;;;;;;5012901;28;20048;-76
2021/01/19 01:15:47;;;;;;;8.43;3.05;;;1.30;99.50;;;;;;5013043;28;20125;-75
2021/01/19 01:18:14;;;;;;;6.57;2.60;;;1.30;99.90;;;;;;5012583;28;20406;-75
2021/01/19 01:20:41;;;;;;;5.50;2.63;;;1.30;99.60;;;;;;5009122;28;20038;-76
2021/01/19 01:23:06;;;;;;;7.10;2.95;;;1.30;99.80;;;;;;5009314;28;20044;-76
2021/01/19 01:25:32;;;;;;;6.88;2.45;;;1.20;99.90;;;;;;5007344;28;20049;-75
2021/01/19 01:27:58;;;;;;;10.18;2.75;;;1.30;99.90;;;;;;5013864;28;20030;-75
2021/01/19 01:30:24;;;;;;;5.03;2.58;;;1.20;99.80;;;;;;5027180;28;20064;-76
2021/01/19 01:32:51;;;;;;;10.55;2.90;;;1.10;99.90;;;;;;5012807;28;20050;-77
2021/01/19 01:35:17;;;;;;;11.00;2.50;;;1.20;99.90;;;;;;5011381;28;20042;-76
2021/01/19 01:37:47;;;;;;;7.15;2.25;;;1.30;99.60;;;;;;5011834;28;20033;-76
2021/01/19 01:40:17;;;;;;;8.13;2.70;;;1.20;99.70;;;;;;5010822;28;20068;-76
2021/01/19 01:42:43;;;;;;;6.72;2.65;;;1.20;99.80;;;;;;5024836;28;20119;-76
2021/01/19 01:45:09;;;;;;;8.88;2.60;;;1.20;99.60;;;;;;5011147;28;20049;-76
2021/01/19 01:47:38;;;;;;;8.75;2.67;;;1.20;99.40;;;;;;5016872;28;20553;-77
2021/01/19 01:50:04;;;;;;;7.78;2.35;;;1.10;99.60;;;;;;5016417;28;20038;-76
2021/01/19 01:52:29;;;;;;;7.13;2.63;;;1.00;99.90;;;;;;5010633;28;20081;-76
2021/01/19 01:54:56;;;;;;;6.60;2.85;;;1.00;99.90;;;;;;5012048;28;20033;-77
2021/01/19 01:57:23;;;;;;;9.10;3.10;;;1.00;99.90;;;;;;5012514;28;20120;-77
2021/01/19 01:59:50;;;;;;;8.23;2.63;;;1.10;99.90;;;;;;5007375;28;20077;-76
2021/01/19 02:02:16;;;;;;;6.22;2.60;;;1.00;99.90;;;;;;5007598;28;20053;-77
2021/01/19 02:04:43;;;;;;;10.40;2.42;;;1.00;99.90;;;;;;5014708;28;20741;-75
2021/01/19 02:07:23;;;;;;;5.82;2.80;;;1.00;99.90;;;;;;5010218;28;20042;-75
2021/01/19 02:10:21;;;;;;;8.18;2.50;;;1.00;99.90;;;;;;5013492;28;20116;-76
2021/01/19 02:13:00;;;;;;;10.23;3.67;;;1.00;99.90;;;;;;5009700;28;20030;-75
2021/01/19 02:15:40;;;;;;;5.95;2.55;;;1.00;99.90;;;;;;5008844;28;20705;-75
2021/01/19 02:18:26;;;;;;;4.47;2.58;;;1.00;99.90;;;;;;5003969;28;20093;-77
2021/01/19 02:21:12;;;;;;;6.88;2.50;;;0.90;99.90;;;;;;5011709;28;20059;-76
2021/01/19 02:23:59;;;;;;;6.20;2.63;;;0.90;99.90;;;;;;5008823;28;20034;-76
2021/01/19 02:26:43;;;;;;;6.20;2.05;;;0.90;99.90;;;;;;5013722;28;20037;-77
2021/01/19 02:29:37;;;;;;;7.88;2.67;;;0.90;99.90;;;;;;5011304;28;20045;-77
2021/01/19 02:32:16;;;;;;;6.55;3.10;;;0.80;99.90;;;;;;5010908;28;20038;-77
2021/01/19 02:35:00;;;;;;;5.65;2.70;;;0.90;99.90;;;;;;5014608;28;20188;-77
2021/01/19 02:37:35;;;;;;;7.72;1.90;;;0.90;99.90;;;;;;5015326;28;20039;-76
2021/01/19 02:40:05;;;;;;;12.25;2.60;;;0.90;99.90;;;;;;5011808;28;20037;-76
2021/01/19 02:42:39;;;;;;;6.45;2.65;;;0.90;99.90;;;;;;5012371;28;20056;-78
2021/01/19 02:45:06;;;;;;;6.93;2.30;;;0.90;99.90;;;;;;5010339;28;20049;-76
2021/01/19 02:47:31;;;;;;;8.68;3.15;;;1.00;99.90;;;;;;5010688;28;20053;-75
2021/01/19 02:49:57;;;;;;;5.72;2.30;;;1.10;99.90;;;;;;5011966;28;20528;-75
2021/01/19 02:52:24;;;;;;;5.72;2.20;;;1.10;99.90;;;;;;5012103;28;20117;-76
2021/01/19 02:54:49;;;;;;;3.35;1.45;;;1.10;99.90;;;;;;5011303;28;20120;-76
2021/01/19 02:58:00;;;;;;;8.57;2.17;;;1.20;99.90;;;;;;5010346;28;20788;-76
2021/01/19 03:01:04;;;;;;;4.38;1.85;;;1.30;99.90;;;;;;5009977;28;20066;-76
2021/01/19 03:03:36;;;;;;;12.82;2.45;;;1.30;99.90;;;;;;5010540;28;20034;-76
2021/01/19 03:06:10;;;;;;;8.07;2.70;;;1.50;99.90;;;;;;5012488;28;20149;-76
2021/01/19 03:08:38;;;;;;;6.93;1.97;;;1.60;99.40;;;;;;5010896;28;20522;-76
2021/01/19 03:11:05;;;;;;;6.65;2.08;;;1.70;99.10;;;;;;5021530;28;20025;-76
2021/01/19 03:13:31;;;;;;;10.73;2.63;;;1.70;98.60;;;;;;5026203;28;20034;-75
2021/01/19 03:16:11;;;;;;;4.95;1.90;;;1.80;98.10;;;;;;5015517;28;20157;-75
2021/01/19 03:18:38;;;;;;;8.70;2.53;;;1.90;97.60;;;;;;5012753;28;20044;-76
2021/01/19 03:21:06;;;;;;;7.10;2.67;;;1.80;98.00;;;;;;5009606;28;20415;-76
2021/01/19 03:23:36;;;;;;;8.50;1.95;;;1.80;98.00;;;;;;5014888;28;20621;-76
2021/01/19 03:26:03;;;;;;;6.43;2.13;;;1.80;98.20;;;;;;5013723;28;20044;-75
2021/01/19 03:28:29;;;;;;;8.18;2.65;;;1.90;97.40;;;;;;5012517;28;20052;-75
2021/01/19 03:30:55;;;;;;;10.95;2.38;;;1.90;97.20;;;;;;5012704;28;20033;-76
2021/01/19 03:33:21;;;;;;;7.57;2.47;;;1.90;97.00;;;;;;5012738;28;20410;-76
2021/01/19 03:35:46;;;;;;;7.18;2.15;;;2.00;96.40;;;;;;5012908;28;20041;-75
2021/01/19 03:38:12;;;;;;;3.80;1.60;;;1.90;96.50;;;;;;5012005;28;20169;-76
2021/01/19 03:40:38;;;;;;;8.32;2.03;;;2.00;96.40;;;;;;5013944;28;20039;-75
2021/01/19 03:43:04;;;;;;;6.53;2.63;;;1.90;97.10;;;;;;5014421;28;20064;-76
2021/01/19 03:45:30;;;;;;;8.48;2.20;;;1.90;96.40;;;;;;5018325;28;20409;-75
2021/01/19 03:47:56;;;;;;;12.20;2.15;;;1.90;96.70;;;;;;5014846;28;20195;-73
2021/01/19 03:50:23;;;;;;;7.65;2.45;;;1.90;97.00;;;;;;5013838;28;20030;-75
2021/01/19 03:52:49;;;;;;;8.20;2.60;;;1.90;97.10;;;;;;5012301;28;20046;-75
2021/01/19 03:55:14;;;;;;;4.35;2.10;;;2.00;96.60;;;;;;5011964;28;20030;-75
2021/01/19 03:57:40;;;;;;;5.57;1.90;;;1.90;96.30;;;;;;5018814;28;20037;-76
2021/01/19 04:00:13;;;;;;;4.68;2.10;;;1.90;96.00;;;;;;5013818;28;20165;-76
2021/01/19 04:02:39;;;;;;;7.10;1.75;;;1.90;95.80;;;;;;5012641;28;20107;-77
2021/01/19 04:05:06;;;;;;;7.30;2.22;;;1.90;95.40;;;;;;5013252;28;20121;-76
2021/01/19 04:07:32;;;;;;;6.75;2.20;;;1.90;95.30;;;;;;4995970;28;20172;-76
2021/01/19 04:09:57;;;;;;;11.80;2.22;;;2.00;95.30;;;;;;5013471;28;20802;-76
2021/01/19 04:12:23;;;;;;;4.95;2.10;;;1.90;95.40;;;;;;5006094;28;20038;-77
2021/01/19 04:14:49;;;;;;;8.88;2.40;;;1.90;95.10;;;;;;5016218;28;20161;-76
2021/01/19 04:17:15;;;;;;;7.72;2.03;;;1.90;94.80;;;;;;5008163;28;20478;-75
2021/01/19 04:19:41;;;;;;;3.97;2.13;;;1.90;94.90;;;;;;5010544;28;20038;-75
2021/01/19 04:22:06;;;;;;;8.73;2.10;;;1.80;94.60;;;;;;5017422;28;20044;-76
2021/01/19 04:24:32;;;;;;;4.40;1.85;;;1.80;94.90;;;;;;5010827;28;20041;-76
2021/01/19 04:26:57;;;;;;;4.03;1.92;;;1.80;95.20;;;;;;5009969;28;20030;-75
2021/01/19 04:29:23;;;;;;;7.03;1.80;;;1.80;95.30;;;;;;5010248;28;20048;-76
2021/01/19 04:31:48;;;;;;;5.63;2.58;;;1.70;95.30;;;;;;5011154;28;20049;-75
2021/01/19 04:34:14;;;;;;;7.90;1.98;;;1.70;95.10;;;;;;5011343;28;20469;-75
2021/01/19 04:36:40;;;;;;;4.93;1.83;;;1.60;95.10;;;;;;5015381;28;20033;-76
2021/01/19 04:39:05;;;;;;;9.75;1.80;;;1.60;95.20;;;;;;5024335;28;20414;-76
2021/01/19 04:41:32;;;;;;;9.82;2.20;;;1.60;95.00;;;;;;5011740;28;20037;-75
2021/01/19 04:43:58;;;;;;;12.07;2.35;;;1.60;95.30;;;;;;5016911;28;20033;-75
2021/01/19 04:46:25;;;;;;;4.75;2.05;;;1.60;95.10;;;;;;5014505;28;20037;-76
2021/01/19 04:48:53;;;;;;;7.72;2.28;;;1.50;95.20;;;;;;5013626;28;20172;-75
2021/01/19 04:51:23;;;;;;;5.10;2.28;;;1.50;95.40;;;;;;5010281;28;20069;-76
2021/01/19 04:54:21;;;;;;;8.50;2.50;;;1.50;95.30;;;;;;5011832;28;20038;-75
2021/01/19 04:56:53;;;;;;;7.07;2.15;;;1.50;95.30;;;;;;5009498;28;20030;-76
2021/01/19 04:59:22;;;;;;;8.98;3.08;;;1.60;95.20;;;;;;5008841;28;20799;-76
2021/01/19 05:02:14;;;;;;;5.15;2.10;;;1.60;95.00;;;;;;5011709;28;20045;-75
2021/01/19 05:04:42;;;;;;;23.77;1.90;;;1.60;94.90;;;;;;5010985;28;20033;-75
2021/01/19 05:07:30;;;;;;;9.02;2.47;;;1.60;94.70;;;;;;5012588;28;20387;-75
2021/01/19 05:10:12;;;;;;;6.13;2.17;;;1.60;94.80;;;;;;5011129;28;20616;-75
2021/01/19 05:12:43;;;;;;;6.78;2.38;;;1.50;94.70;;;;;;5012836;28;20041;-76
2021/01/19 05:15:11;;;;;;;5.88;2.10;;;1.50;94.90;;;;;;5011222;28;20060;-75
2021/01/19 05:17:38;;;;;;;8.95;2.42;;;1.50;94.80;;;;;;5014433;28;20045;-76
2021/01/19 05:20:05;;;;;;;7.03;2.38;;;1.50;94.90;;;;;;5011158;28;20103;-76
2021/01/19 05:22:31;;;;;;;6.28;2.65;;;1.50;94.90;;;;;;5013088;28;20045;-75
2021/01/19 05:24:57;;;;;;;4.65;2.13;;;1.50;94.80;;;;;;5011089;28;20525;-75
2021/01/19 05:27:23;;;;;;;5.18;2.22;;;1.50;94.80;;;;;;5010514;28;20037;-76
2021/01/19 05:30:04;;;;;;;4.93;2.33;;;1.40;94.80;;;;;;5011816;28;20041;-76
2021/01/19 05:32:43;;;;;;;10.63;2.72;;;1.40;94.70;;;;;;5010005;28;20042;-75
2021/01/19 05:35:12;;;;;;;4.50;2.08;;;1.40;94.90;;;;;;5010365;28;20030;-76
2021/01/19 05:37:38;;;;;;;3.13;1.98;;;1.40;94.90;;;;;;5008916;28;20125;-76
2021/01/19 05:40:07;;;;;;;5.63;2.63;;;1.40;94.90;;;;;;5013581;28;20120;-75
2021/01/19 05:42:33;;;;;;;7.03;2.75;;;1.40;95.30;;;;;;5010206;28;20665;-76
2021/01/19 05:45:06;;;;;;;6.22;2.13;;;1.30;95.10;;;;;;5008066;28;20052;-76
2021/01/19 05:47:33;;;;;;;7.55;3.13;;;1.40;95.10;;;;;;5013632;28;20465;-77
2021/01/19 05:50:00;;;;;;;10.10;3.08;;;1.40;94.90;;;;;;5008699;28;20533;-77
2021/01/19 05:52:33;;;;;;;10.88;2.45;;;1.30;94.90;;;;;;5008809;28;20041;-77
2021/01/19 05:54:59;;;;;;;4.28;2.55;;;1.30;95.10;;;;;;5026675;28;20288;-79
2021/01/19 05:57:26;;;;;;;11.25;2.65;;;1.30;95.20;;;;;;5007538;28;20809;-79
2021/01/19 05:59:56;;;;;;;8.88;2.83;;;1.20;95.00;;;;;;5015371;28;20037;-77
2021/01/19 06:02:34;;;;;;;4.82;2.17;;;1.30;95.30;;;;;;5010352;28;20042;-77
2021/01/19 06:05:10;;;;;;;7.38;2.78;;;1.30;95.10;;;;;;5005972;28;20072;-77
2021/01/19 06:07:42;;;;;;;7.28;2.83;;;1.30;95.20;;;;;;5011996;28;20103;-77
2021/01/19 06:10:15;;;;;;;8.38;2.90;;;1.30;95.20;;;;;;5010924;28;20044;-77
2021/01/19 06:12:41;;;;;;;6.03;2.70;;;1.30;95.20;;;;;;5006928;28;20033;-77
2021/01/19 06:15:08;;;;;;;8.73;2.60;;;1.20;95.30;;;;;;5004304;28;20045;-78
2021/01/19 06:17:34;;;;;;;6.90;3.08;;;1.30;95.30;;;;;;5003962;28;20064;-76
2021/01/19 06:20:03;;;;;;;9.75;2.50;;;1.30;95.20;;;;;;5012472;28;20070;-77
2021/01/19 06:22:29;;;;;;;11.70;2.63;;;1.20;94.80;;;;;;5011403;28;20132;-78
2021/01/19 06:24:56;;;;;;;5.13;2.25;;;1.20;94.70;;;;;;5004793;28;20183;-77
2021/01/19 06:27:24;;;;;;;5.70;2.17;;;1.20;94.90;;;;;;5001057;28;20709;-78
2021/01/19 06:29:51;;;;;;;6.82;3.10;;;1.20;94.90;;;;;;5012771;28;20518;-77
2021/01/19 06:32:18;;;;;;;4.03;2.17;;;1.20;94.60;;;;;;4993118;28;20041;-78
2021/01/19 06:34:44;;;;;;;9.63;2.75;;;1.10;94.50;;;;;;4999023;28;20045;-77
2021/01/19 06:37:22;;;;;;;4.82;2.03;;;1.10;94.80;;;;;;4999719;28;20029;-78
2021/01/19 06:39:58;;;;;;;8.93;2.42;;;1.10;94.70;;;;;;5008462;28;20511;-78
2021/01/19 06:42:27;;;;;;;10.63;2.95;;;1.10;94.70;;;;;;5004342;28;20045;-77
2021/01/19 06:44:58;;;;;;;6.30;2.78;;;1.10;94.90;;;;;;5007078;28;20041;-77
2021/01/19 06:47:24;;;;;;;9.57;3.92;;;1.10;95.00;;;;;;5009831;28;20563;-77
2021/01/19 06:49:52;;;;;;;17.73;2.60;;;1.10;94.80;;;;;;5011959;28;20049;-81
2021/01/19 06:52:18;;;;;;;7.45;2.17;;;1.00;94.70;;;;;;5012961;28;20049;-78
2021/01/19 06:55:01;;;;;;;8.60;3.25;;;1.00;94.60;;;;;;5009530;28;20113;-79
2021/01/19 06:57:39;;;;;;;13.82;2.53;;;1.00;94.80;;;;;;5031907;28;20069;-77
2021/01/19 07:00:23;;;;;;;5.70;2.92;;;1.00;94.60;;;;;;5011752;28;20037;-78
2021/01/19 07:02:53;;;;;;;11.50;3.30;;;1.00;94.80;;;;;;5015781;28;20037;-78
2021/01/19 07:05:21;;;;;;;7.13;2.83;;;0.90;94.70;;;;;;5010425;28;20117;-78
2021/01/19 07:07:48;;;;;;;9.77;2.70;;;1.00;94.80;;;;;;5009957;28;20619;-78
2021/01/19 07:10:25;;;;;;;6.35;2.80;;;0.90;94.70;;;;;;5007858;28;20136;-80
2021/01/19 07:13:01;;;;;;;8.88;3.50;;;0.90;94.50;;;;;;5017612;28;20042;-80
2021/01/19 07:15:54;;;;;;;5.32;2.65;;;0.90;94.60;;;;;;5030201;28;20081;-78
2021/01/19 07:18:44;;;;;;;6.28;2.70;;;0.80;94.70;;;;;;4997525;28;20033;-78
2021/01/19 07:21:11;;;;;;;5.80;3.22;;;0.80;94.90;;;;;;4996509;28;20041;-77
2021/01/19 07:23:46;;;;;;;8.25;3.00;;;0.80;95.40;;;;;;5014723;28;20041;-78
2021/01/19 07:26:16;;;;;;;7.15;2.70;;;0.80;94.90;;;;;;5015536;28;20133;-79
2021/01/19 07:28:42;;;;;;;6.70;3.13;;;0.80;94.90;;;;;;5015032;28;20402;-79
2021/01/19 07:31:08;;;;;;;7.78;3.08;;;0.80;95.00;;;;;;5012170;28;20042;-77
2021/01/19 07:33:36;;;;;;;5.47;3.03;;;0.80;94.80;;;;;;5012942;28;20033;-77
2021/01/19 07:36:03;;;;;;;24.58;3.45;;;0.80;94.80;;;;;;5013497;28;20037;-77
2021/01/19 07:38:28;;;;;;;7.85;3.00;;;0.80;94.70;;;;;;5012606;28;20149;-76
2021/01/19 07:40:55;;;;;;;10.30;3.45;;;0.80;94.90;;;;;;5029938;28;20125;-83
2021/01/19 07:43:21;;;;;;;11.02;3.40;;;0.80;94.80;;;;;;5008879;28;20654;-77
2021/01/19 07:45:52;;;;;;;12.18;3.05;;;0.80;94.70;;;;;;5006941;28;20041;-79
2021/01/19 07:48:37;;;;;;;16.05;3.65;;;0.90;94.60;;;;;;5010673;28;20034;-79
2021/01/19 07:51:12;;;;;;;10.88;3.10;;;0.90;94.50;;;;;;5002121;28;20169;-78
2021/01/19 07:53:55;;;;;;;9.85;2.67;;;1.00;94.30;;;;;;5007442;28;20084;-78
2021/01/19 07:56:30;;;;;;;8.05;3.53;;;1.00;94.30;;;;;;5006301;28;20042;-78
2021/01/19 07:58:57;;;;;;;9.18;2.90;;;1.00;94.30;;;;;;5012088;28;20469;-80
2021/01/19 08:01:28;;;;;;;8.80;3.30;;;1.10;94.00;;;;;;5004509;28;20041;-79
2021/01/19 08:04:11;;;;;;;8.65;3.55;;;1.10;94.00;;;;;;5004800;28;20355;-77
2021/01/19 08:06:38;;;;;;;5.45;3.00;;;1.20;93.60;;;;;;5013117;28;20030;-79
2021/01/19 08:09:13;;;;;;;6.40;2.90;;;1.30;93.90;;;;;;5009085;28;20053;-77
2021/01/19 08:11:39;;;;;;;7.35;3.22;;;1.40;93.70;;;;;;5008378;28;20037;-77
2021/01/19 08:14:05;;;;;;;12.43;3.45;;;1.40;92.70;;;;;;5001157;28;20193;-77
2021/01/19 08:16:38;;;;;;;12.77;3.22;;;1.50;93.20;;;;;;4998998;28;20046;-77
2021/01/19 08:19:13;;;;;;;8.43;3.25;;;1.50;92.20;;;;;;5001452;28;20815;-78
2021/01/19 08:21:54;;;;;;;7.63;3.25;;;1.60;92.20;;;;;;5004515;28;20040;-78
2021/01/19 08:24:24;;;;;;;7.95;2.92;;;1.50;91.50;;;;;;5004121;28;20250;-77
2021/01/19 08:27:00;;;;;;;8.65;3.10;;;1.70;91.70;;;;;;5010228;28;20040;-79
2021/01/19 08:29:26;;;;;;;7.20;3.25;;;1.80;91.10;;;;;;5002820;28;20356;-77
2021/01/19 08:32:00;;;;;;;10.13;3.92;;;1.80;90.60;;;;;;5002508;28;20038;-77
2021/01/19 08:34:27;;;;;;;10.82;3.83;;;1.90;90.80;;;;;;5002509;28;20491;-78
2021/01/19 08:36:54;;;;;;;9.30;3.50;;;2.00;90.60;;;;;;4988983;28;20182;-77
2021/01/19 08:39:20;;;;;;;12.57;3.60;;;2.10;90.00;;;;;;5004830;28;20409;-77
2021/01/19 08:41:56;;;;;;;11.32;3.67;;;2.10;89.40;;;;;;5003208;28;20041;-77
2021/01/19 08:44:22;;;;;;;6.95;3.25;;;2.30;89.30;;;;;;5006479;28;20041;-77
2021/01/19 08:46:49;;;;;;;6.45;3.03;;;2.50;88.00;;;;;;5003823;28;20052;-77
2021/01/19 08:49:16;;;;;;;11.57;3.65;;;2.40;88.00;;;;;;5002049;28;20143;-77
2021/01/19 08:51:50;;;;;;;8.60;3.65;;;2.50;86.70;;;;;;5001025;28;20026;-78
2021/01/19 08:54:16;;;;;;;13.77;3.70;;;2.60;86.30;;;;;;5016884;28;20054;-77
2021/01/19 08:56:44;;;;;;;7.07;3.20;;;2.60;85.70;;;;;;5002565;28;20029;-77
2021/01/19 08:59:14;;;;;;;13.27;4.32;;;2.70;86.00;;;;;;5005355;28;20079;-79
2021/01/19 09:01:55;;;;;;;15.52;3.80;;;2.80;85.30;;;;;;5010845;28;20038;-77
2021/01/19 09:04:25;;;;;;;12.38;3.88;;;2.80;83.40;;;;;;5012045;28;20045;-77
2021/01/19 09:06:51;;;;;;;13.43;3.75;;;2.90;82.30;;;;;;5011533;28;20036;-78
2021/01/19 09:09:21;;;;;;;13.93;4.10;;;2.90;82.50;;;;;;5011306;28;20204;-78
2021/01/19 09:11:47;;;;;;;9.93;3.88;;;2.90;82.40;;;;;;5010699;28;20648;-77
2021/01/19 09:14:12;;;;;;;7.18;3.67;;;2.90;83.40;;;;;;5005702;28;20048;-78
2021/01/19 09:16:39;;;;;;;8.15;3.40;;;3.00;82.60;;;;;;5004292;28;20037;-79
2021/01/19 09:19:07;;;;;;;7.93;3.30;;;3.00;82.00;;;;;;5003991;28;20029;-78
2021/01/19 09:21:33;;;;;;;9.77;3.60;;;3.00;81.90;;;;;;4999932;28;20447;-77
2021/01/19 09:24:00;;;;;;;14.30;4.95;;;2.90;82.10;;;;;;5000568;28;20046;-77
2021/01/19 09:26:25;;;;;;;21.17;3.97;;;2.90;82.80;;;;;;5005025;28;20061;-79
2021/01/19 09:28:52;;;;;;;6.78;2.92;;;3.00;82.40;;;;;;5000634;28;20109;-77
2021/01/19 09:31:23;;;;;;;15.30;3.67;;;2.90;80.90;;;;;;4998794;28;20778;-78
2021/01/19 09:33:52;;;;;;;15.00;3.88;;;2.90;81.40;;;;;;5000738;28;20038;-78
2021/01/19 09:36:19;;;;;;;14.82;4.15;;;3.00;82.70;;;;;;5000765;28;20045;-78
2021/01/19 09:38:48;;;;;;;12.13;3.63;;;2.90;81.20;;;;;;4997648;28;20038;-80
2021/01/19 09:44:26;;;;;;;15.88;4.55;;;3.00;82.30;;;;;;4990026;28;20056;-79
2021/01/19 09:46:54;;;;;;;12.85;3.63;;;3.00;82.30;;;;;;5000407;28;20037;-78
2021/01/19 09:49:22;;;;;;;13.13;3.40;;;3.10;82.00;;;;;;4999435;28;20037;-79
2021/01/19 09:51:48;;;;;;;13.10;3.53;;;3.10;82.40;;;;;;4999342;28;20096;-78
2021/01/19 09:54:20;;;;;;;7.57;3.28;;;3.20;81.80;;;;;;5003872;28;20030;-78
2021/01/19 09:56:57;;;;;;;18.45;3.40;;;3.20;82.70;;;;;;5001858;28;20042;-78
2021/01/19 09:59:27;;;;;;;16.55;3.95;;;3.20;81.60;;;;;;4998976;28;20045;-78
2021/01/19 10:01:56;;;;;;;9.75;3.22;;;3.00;82.50;;;;;;5008531;28;20041;-77
2021/01/19 10:04:26;;;;;;;13.77;3.55;;;3.10;81.80;;;;;;5013986;28;20071;-78
2021/01/19 10:07:08;;;;;;;9.45;3.70;;;3.10;82.20;;;;;;5018087;28;20032;-79
2021/01/19 10:09:35;;;;;;;21.38;3.75;;;3.20;82.30;;;;;;5014840;28;20034;-80
2021/01/19 10:12:08;;;;;;;8.98;3.38;;;3.40;82.60;;;;;;5005952;28;20025;-77
2021/01/19 10:14:39;;;;;;;11.13;3.30;;;3.50;82.40;;;;;;5010993;28;20058;-77
2021/01/19 10:17:06;;;;;;;7.55;3.30;;;3.30;81.70;;;;;;5012074;28;20312;-77
2021/01/19 10:19:34;;;;;;;8.32;3.03;;;3.40;82.00;;;;;;5011843;28;20034;-79
2021/01/19 10:22:08;;;;;;;13.70;4.25;;;3.30;83.50;;;;;;5009315;28;20565;-78
2021/01/19 10:24:34;;;;;;;16.98;3.70;;;3.40;82.50;;;;;;5017431;28;20034;-79
2021/01/19 10:27:08;;;;;;;9.60;2.88;;;3.30;82.70;;;;;;5017422;28;20026;-78
2021/01/19 10:29:41;;;;;;;17.85;3.30;;;3.40;83.30;;;;;;5011535;28;20137;-78
2021/01/19 10:32:16;;;;;;;13.02;3.40;;;3.50;83.30;;;;;;5011045;28;20083;-78
2021/01/19 10:34:50;;;;;;;13.02;3.65;;;3.50;83.40;;;;;;5012551;28;20037;-79
2021/01/19 10:37:17;;;;;;;7.30;3.25;;;3.60;84.00;;;;;;5014253;28;20037;-78
2021/01/19 10:39:59;;;;;;;10.02;3.33;;;3.60;82.90;;;;;;5013264;28;20037;-79
2021/01/19 10:42:32;;;;;;;17.65;4.18;;;3.50;82.20;;;;;;5007498;28;20034;-79
2021/01/19 10:45:00;;;;;;;11.07;3.93;;;3.50;82.60;;;;;;5004700;28;20033;-77
2021/01/19 10:47:26;;;;;;;11.25;3.97;;;3.60;82.50;;;;;;5012133;28;21476;-77
2021/01/19 10:49:52;;;;;;;11.68;3.30;;;3.60;82.90;;;;;;5010189;28;20046;-76
2021/01/19 10:52:18;;;;;;;14.40;3.97;;;3.50;82.50;;;;;;5010436;28;20062;-77
2021/01/19 10:54:43;;;;;;;14.23;4.50;;;3.60;82.70;;;;;;5009507;28;20566;-80
2021/01/19 10:57:10;;;;;;;6.18;3.53;;;3.60;83.20;;;;;;5006851;28;20038;-78
2021/01/19 10:59:37;;;;;;;8.02;3.30;;;3.60;83.30;;;;;;5013640;28;20064;-78
2021/01/19 11:02:05;;;;;;;8.27;3.20;;;3.70;83.40;;;;;;5003574;28;20081;-77
2021/01/19 11:04:32;;;;;;;15.77;3.63;;;3.80;83.00;;;;;;5005072;28;20125;-78
2021/01/19 11:07:00;;;;;;;11.20;4.20;;;3.80;82.40;;;;;;5007506;28;20131;-78
2021/01/19 11:09:26;;;;;;;12.48;3.85;;;3.90;82.70;;;;;;5004870;28;20382;-79
2021/01/19 11:11:51;;;;;;;10.15;3.25;;;3.90;81.90;;;;;;5010486;28;20041;-79
2021/01/19 11:14:17;;;;;;;9.95;3.22;;;4.00;82.60;;;;;;5015111;28;20045;-78
2021/01/19 11:16:43;;;;;;;8.10;3.38;;;3.90;81.70;;;;;;5013445;28;20149;-78
2021/01/19 11:19:11;;;;;;;9.55;3.45;;;3.90;82.30;;;;;;5009620;28;20376;-80
2021/01/19 11:21:39;;;;;;;8.30;3.40;;;4.00;82.40;;;;;;5024185;28;20564;-78
2021/01/19 11:24:06;;;;;;;11.00;4.03;;;4.00;81.80;;;;;;5008646;28;20029;-78
2021/01/19 11:26:34;;;;;;;12.40;3.55;;;4.00;81.60;;;;;;4991493;28;20580;-78
2021/01/19 11:28:59;;;;;;;15.82;3.88;;;3.90;80.50;;;;;;5011110;28;20045;-79
2021/01/19 11:31:27;;;;;;;13.93;3.88;;;3.90;81.30;;;;;;5011036;28;20041;-78
2021/01/19 11:33:56;;;;;;;15.32;3.90;;;4.00;81.20;;;;;;5013254;28;20030;-78
2021/01/19 11:36:27;;;;;;;14.25;4.68;;;4.00;81.20;;;;;;5011510;28;20048;-78
2021/01/19 11:38:54;;;;;;;14.85;3.63;;;4.10;80.90;;;;;;5027901;28;20155;-78
2021/01/19 11:41:22;;;;;;;10.73;3.47;;;4.10;80.50;;;;;;5010539;28;20095;-78
2021/01/19 11:43:49;;;;;;;19.02;4.70;;;4.10;81.60;;;;;;4995077;28;20110;-77
2021/01/19 11:46:28;;;;;;;10.15;3.45;;;4.20;81.50;;;;;;5013632;28;20038;-78
2021/01/19 11:48:57;;;;;;;9.55;3.63;;;4.30;81.20;;;;;;5015905;28;20468;-80
2021/01/19 11:51:25;;;;;;;11.00;3.20;;;4.30;79.20;;;;;;5014000;28;20407;-77
2021/01/19 11:53:53;;;;;;;17.55;3.47;;;4.30;79.50;;;;;;5029533;28;20037;-77
2021/01/19 11:56:19;;;;;;;15.90;3.33;;;4.40;78.90;;;;;;5015376;28;20087;-79
2021/01/19 11:58:46;;;;;;;23.50;3.50;;;4.50;78.70;;;;;;5011838;28;20129;-79
2021/01/19 12:01:21;;;;;;;13.32;2.97;;;4.50;78.40;;;;;;5013681;28;20641;-77
2021/01/19 12:03:48;;;;;;;10.30;2.95;;;4.60;78.10;;;;;;5013883;28;20180;-79
2021/01/19 12:06:14;;;;;;;10.55;3.00;;;4.60;77.20;;;;;;5012639;28;20113;-77
2021/01/19 12:08:41;;;;;;;12.70;2.85;;;4.60;77.50;;;;;;5016189;28;20041;-78
2021/01/19 12:11:08;;;;;;;6.80;2.47;;;4.60;77.10;;;;;;5008342;28;20467;-77
2021/01/19 12:13:36;;;;;;;18.48;3.38;;;4.70;78.00;;;;;;5007947;28;20041;-77
2021/01/19 12:16:01;;;;;;;9.45;3.22;;;4.70;78.20;;;;;;5014196;28;20126;-78
2021/01/19 12:18:27;;;;;;;7.05;2.70;;;4.80;78.20;;;;;;5012637;28;20126;-78
2021/01/19 12:20:53;;;;;;;14.70;3.28;;;4.80;78.40;;;;;;5017563;28;20383;-78
2021/01/19 12:23:18;;;;;;;12.95;3.42;;;4.90;78.80;;;;;;5028343;28;20403;-78
2021/01/19 12:25:44;;;;;;;12.48;3.20;;;4.90;77.60;;;;;;5013702;28;20637;-78
2021/01/19 12:28:09;;;;;;;9.38;3.25;;;4.90;76.20;;;;;;5010195;28;20034;-77
2021/01/19 12:30:34;;;;;;;14.60;3.53;;;5.00;76.50;;;;;;5015637;28;20037;-77
2021/01/19 12:33:00;;;;;;;5.05;2.83;;;5.20;77.40;;;;;;5027466;28;20040;-78
2021/01/19 12:35:26;;;;;;;11.48;2.60;;;5.20;75.30;;;;;;5009728;28;20716;-76
2021/01/19 12:37:57;;;;;;;15.45;3.28;;;5.20;76.00;;;;;;5018772;28;20030;-78
2021/01/19 12:40:23;;;;;;;11.27;3.15;;;5.20;74.70;;;;;;5002719;28;20045;-78
2021/01/19 12:42:49;;;;;;;8.98;2.63;;;5.20;74.60;;;;;;4999212;28;20035;-77
2021/01/19 12:45:16;;;;;;;6.43;3.17;;;5.20;74.60;;;;;;5014971;28;20195;-77
2021/01/19 12:47:42;;;;;;;6.07;2.42;;;5.20;75.00;;;;;;5018929;28;20147;-77
2021/01/19 12:50:08;;;;;;;7.63;3.13;;;5.20;74.60;;;;;;4987068;28;20612;-78
2021/01/19 12:52:33;;;;;;;8.10;2.65;;;5.10;75.30;;;;;;4974671;28;20042;-77
2021/01/19 12:54:59;;;;;;;12.57;2.90;;;5.10;76.00;;;;;;5016248;28;20033;-77
2021/01/19 12:57:24;;;;;;;11.68;2.60;;;5.10;76.20;;;;;;5019922;28;20045;-76
2021/01/19 12:59:50;;;;;;;7.95;2.67;;;5.10;76.60;;;;;;5002600;28;20026;-80
2021/01/19 13:02:15;;;;;;;8.15;2.40;;;5.10;77.60;;;;;;5036922;28;20042;-79
2021/01/19 13:04:41;;;;;;;6.97;2.90;;;5.10;79.60;;;;;;5040425;28;20089;-81
2021/01/19 13:07:13;;;;;;;8.73;2.65;;;5.20;80.80;;;;;;5044814;28;20101;-79